sensor_id;sensor_type;location;lat;lon;timestamp;P1;durP1;ratioP1;P2;durP2;ratioP2
46729;SDS011;32476;50.002;11.854;2023-05-16T00:00:23;12.23;;;8.67;;
46729;SDS011;32476;50.002;11.854;2023-05-16T00:02:51;13.87;;;8.47;;
46729;SDS011;32476;50.002;11.854;2023-05-16T00:05:17;14.37;;;9.03;;
46729;SDS011;32476;50.002;11.854;2023-05-16T00:07:44;14.20;;;8.97;;
46729;SDS011;32476;50.002;11.854;2023-05-16T00:10:13;10.57;;;8.50;;
46729;SDS011;32476;50.002;11.854;2023-05-16T00:12:39;11.17;;;8.80;;
46729;SDS011;32476;50.002;11.854;2023-05-16T00:15:05;10.37;;;8.50;;
46729;SDS011;32476;50.002;11.854;2023-05-16T00:17:34;13.93;;;8.90;;
46729;SDS011;32476;50.002;11.854;2023-05-16T00:20:01;11.53;;;8.77;;
46729;SDS011;32476;50.002;11.854;2023-05-16T00:22:36;12.03;;;8.80;;
46729;SDS011;32476;50.002;11.854;2023-05-16T00:25:02;12.83;;;9.33;;
46729;SDS011;32476;50.002;11.854;2023-05-16T00:27:28;10.87;;;8.90;;
46729;SDS011;32476;50.002;11.854;2023-05-16T00:29:56;11.40;;;9.07;;
46729;SDS011;32476;50.002;11.854;2023-05-16T00:32:21;12.67;;;9.13;;
46729;SDS011;32476;50.002;11.854;2023-05-16T00:34:47;11.53;;;9.40;;
46729;SDS011;32476;50.002;11.854;2023-05-16T00:37:15;11.80;;;9.50;;
46729;SDS011;32476;50.002;11.854;2023-05-16T00:39:40;13.83;;;9.73;;
46729;SDS011;32476;50.002;11.854;2023-05-16T00:42:06;13.83;;;9.13;;
46729;SDS011;32476;50.002;11.854;2023-05-16T00:44:33;12.10;;;9.17;;
46729;SDS011;32476;50.002;11.854;2023-05-16T00:46:59;10.40;;;8.93;;
46729;SDS011;32476;50.002;11.854;2023-05-16T00:49:27;13.87;;;8.73;;
46729;SDS011;32476;50.002;11.854;2023-05-16T00:51:55;11.97;;;8.97;;
46729;SDS011;32476;50.002;11.854;2023-05-16T00:54:23;11.33;;;8.63;;
46729;SDS011;32476;50.002;11.854;2023-05-16T00:56:54;11.73;;;8.53;;
46729;SDS011;32476;50.002;11.854;2023-05-16T00:59:22;13.97;;;8.83;;
46729;SDS011;32476;50.002;11.854;2023-05-16T01:01:48;10.43;;;9.07;;
46729;SDS011;32476;50.002;11.854;2023-05-16T01:04:17;10.13;;;8.77;;
46729;SDS011;32476;50.002;11.854;2023-05-16T01:06:43;10.80;;;8.30;;
46729;SDS011;32476;50.002;11.854;2023-05-16T01:09:10;12.77;;;8.47;;
46729;SDS011;32476;50.002;11.854;2023-05-16T01:11:42;12.43;;;8.73;;
46729;SDS011;32476;50.002;11.854;2023-05-16T01:14:24;14.50;;;9.77;;
46729;SDS011;32476;50.002;11.854;2023-05-16T01:25:20;15.03;;;10.00;;
46729;SDS011;32476;50.002;11.854;2023-05-16T01:27:57;15.10;;;10.00;;
46729;SDS011;32476;50.002;11.854;2023-05-16T01:30:23;15.00;;;9.87;;
46729;SDS011;32476;50.002;11.854;2023-05-16T01:32:50;14.13;;;9.80;;
46729;SDS011;32476;50.002;11.854;2023-05-16T01:35:17;12.43;;;9.37;;
46729;SDS011;32476;50.002;11.854;2023-05-16T01:40:25;13.77;;;9.50;;
46729;SDS011;32476;50.002;11.854;2023-05-16T01:43:01;13.53;;;9.33;;
46729;SDS011;32476;50.002;11.854;2023-05-16T01:45:33;11.23;;;9.17;;
46729;SDS011;32476;50.002;11.854;2023-05-16T01:48:06;10.87;;;8.53;;
46729;SDS011;32476;50.002;11.854;2023-05-16T01:50:35;13.03;;;9.47;;
46729;SDS011;32476;50.002;11.854;2023-05-16T01:53:11;15.03;;;9.43;;
46729;SDS011;32476;50.002;11.854;2023-05-16T01:55:44;12.30;;;9.57;;
46729;SDS011;32476;50.002;11.854;2023-05-16T01:58:13;14.37;;;10.37;;
46729;SDS011;32476;50.002;11.854;2023-05-16T02:00:40;12.53;;;9.40;;
46729;SDS011;32476;50.002;11.854;2023-05-16T02:03:06;17.30;;;10.23;;
46729;SDS011;32476;50.002;11.854;2023-05-16T02:05:34;13.93;;;10.37;;
46729;SDS011;32476;50.002;11.854;2023-05-16T02:08:00;14.63;;;11.07;;
46729;SDS011;32476;50.002;11.854;2023-05-16T02:10:26;19.37;;;11.17;;
46729;SDS011;32476;50.002;11.854;2023-05-16T02:12:54;13.53;;;9.90;;
46729;SDS011;32476;50.002;11.854;2023-05-16T02:15:20;15.77;;;10.00;;
46729;SDS011;32476;50.002;11.854;2023-05-16T02:17:45;11.37;;;9.67;;
46729;SDS011;32476;50.002;11.854;2023-05-16T02:20:13;16.03;;;10.33;;
46729;SDS011;32476;50.002;11.854;2023-05-16T02:22:39;13.93;;;10.40;;
46729;SDS011;32476;50.002;11.854;2023-05-16T02:25:06;14.97;;;10.37;;
46729;SDS011;32476;50.002;11.854;2023-05-16T02:27:34;13.90;;;10.37;;
46729;SDS011;32476;50.002;11.854;2023-05-16T02:30:00;12.53;;;9.87;;
46729;SDS011;32476;50.002;11.854;2023-05-16T02:32:26;15.80;;;11.23;;
46729;SDS011;32476;50.002;11.854;2023-05-16T02:34:53;17.53;;;10.67;;
46729;SDS011;32476;50.002;11.854;2023-05-16T02:37:19;16.87;;;10.90;;
46729;SDS011;32476;50.002;11.854;2023-05-16T02:39:45;14.93;;;11.00;;
46729;SDS011;32476;50.002;11.854;2023-05-16T02:42:12;19.60;;;12.37;;
46729;SDS011;32476;50.002;11.854;2023-05-16T02:44:38;13.70;;;10.60;;
46729;SDS011;32476;50.002;11.854;2023-05-16T02:47:04;15.07;;;11.50;;
46729;SDS011;32476;50.002;11.854;2023-05-16T02:49:31;17.53;;;12.30;;
46729;SDS011;32476;50.002;11.854;2023-05-16T02:51:57;16.20;;;12.40;;
46729;SDS011;32476;50.002;11.854;2023-05-16T02:54:23;17.63;;;12.77;;
46729;SDS011;32476;50.002;11.854;2023-05-16T02:56:50;18.23;;;12.93;;
46729;SDS011;32476;50.002;11.854;2023-05-16T02:59:16;19.47;;;12.33;;
46729;SDS011;32476;50.002;11.854;2023-05-16T03:01:42;17.80;;;12.50;;
46729;SDS011;32476;50.002;11.854;2023-05-16T03:04:09;15.93;;;12.20;;
46729;SDS011;32476;50.002;11.854;2023-05-16T03:06:35;17.90;;;11.97;;
46729;SDS011;32476;50.002;11.854;2023-05-16T03:09:00;17.40;;;11.13;;
46729;SDS011;32476;50.002;11.854;2023-05-16T03:11:28;16.40;;;11.23;;
46729;SDS011;32476;50.002;11.854;2023-05-16T03:13:53;14.00;;;11.50;;
46729;SDS011;32476;50.002;11.854;2023-05-16T03:16:19;16.40;;;11.27;;
46729;SDS011;32476;50.002;11.854;2023-05-16T03:18:47;20.90;;;11.67;;
46729;SDS011;32476;50.002;11.854;2023-05-16T03:21:13;14.53;;;11.33;;
46729;SDS011;32476;50.002;11.854;2023-05-16T03:23:39;13.93;;;10.47;;
46729;SDS011;32476;50.002;11.854;2023-05-16T03:26:06;13.63;;;10.27;;
46729;SDS011;32476;50.002;11.854;2023-05-16T03:28:32;17.97;;;10.30;;
46729;SDS011;32476;50.002;11.854;2023-05-16T03:30:58;12.77;;;8.40;;
46729;SDS011;32476;50.002;11.854;2023-05-16T03:33:26;14.83;;;9.87;;
46729;SDS011;32476;50.002;11.854;2023-05-16T03:35:51;12.93;;;9.27;;
46729;SDS011;32476;50.002;11.854;2023-05-16T03:38:17;16.83;;;9.80;;
46729;SDS011;32476;50.002;11.854;2023-05-16T03:40:44;16.70;;;9.83;;
46729;SDS011;32476;50.002;11.854;2023-05-16T03:43:10;12.17;;;10.10;;
46729;SDS011;32476;50.002;11.854;2023-05-16T03:45:36;12.47;;;10.07;;
46729;SDS011;32476;50.002;11.854;2023-05-16T03:48:04;11.67;;;9.60;;
46729;SDS011;32476;50.002;11.854;2023-05-16T03:50:29;15.03;;;10.60;;
46729;SDS011;32476;50.002;11.854;2023-05-16T03:52:55;16.60;;;10.53;;
46729;SDS011;32476;50.002;11.854;2023-05-16T03:55:23;13.00;;;10.23;;
46729;SDS011;32476;50.002;11.854;2023-05-16T03:57:49;14.47;;;11.07;;
46729;SDS011;32476;50.002;11.854;2023-05-16T04:00:16;17.17;;;11.53;;
46729;SDS011;32476;50.002;11.854;2023-05-16T04:02:45;18.33;;;10.40;;
46729;SDS011;32476;50.002;11.854;2023-05-16T04:05:11;13.53;;;10.20;;
46729;SDS011;32476;50.002;11.854;2023-05-16T04:07:38;14.03;;;11.00;;
46729;SDS011;32476;50.002;11.854;2023-05-16T04:10:06;15.47;;;10.90;;
46729;SDS011;32476;50.002;11.854;2023-05-16T04:12:33;16.37;;;11.87;;
46729;SDS011;32476;50.002;11.854;2023-05-16T04:15:00;15.63;;;11.67;;
46729;SDS011;32476;50.002;11.854;2023-05-16T04:17:31;18.10;;;11.97;;
46729;SDS011;32476;50.002;11.854;2023-05-16T04:19:58;18.83;;;12.73;;
46729;SDS011;32476;50.002;11.854;2023-05-16T04:22:24;18.77;;;11.57;;
46729;SDS011;32476;50.002;11.854;2023-05-16T04:24:52;16.63;;;12.03;;
46729;SDS011;32476;50.002;11.854;2023-05-16T04:27:17;15.63;;;11.70;;
46729;SDS011;32476;50.002;11.854;2023-05-16T04:29:43;17.53;;;11.00;;
46729;SDS011;32476;50.002;11.854;2023-05-16T04:32:10;16.63;;;12.47;;
46729;SDS011;32476;50.002;11.854;2023-05-16T04:34:36;14.87;;;11.17;;
46729;SDS011;32476;50.002;11.854;2023-05-16T04:37:03;16.60;;;12.13;;
46729;SDS011;32476;50.002;11.854;2023-05-16T04:39:31;15.47;;;10.63;;
46729;SDS011;32476;50.002;11.854;2023-05-16T04:41:57;13.43;;;10.27;;
46729;SDS011;32476;50.002;11.854;2023-05-16T04:44:26;12.93;;;10.30;;
46729;SDS011;32476;50.002;11.854;2023-05-16T04:46:54;14.90;;;10.57;;
46729;SDS011;32476;50.002;11.854;2023-05-16T04:49:20;17.63;;;13.77;;
46729;SDS011;32476;50.002;11.854;2023-05-16T04:51:46;13.70;;;10.23;;
46729;SDS011;32476;50.002;11.854;2023-05-16T04:54:14;12.30;;;9.60;;
46729;SDS011;32476;50.002;11.854;2023-05-16T04:56:40;19.27;;;14.00;;
46729;SDS011;32476;50.002;11.854;2023-05-16T04:59:06;14.23;;;10.37;;
46729;SDS011;32476;50.002;11.854;2023-05-16T05:01:33;17.43;;;9.30;;
46729;SDS011;32476;50.002;11.854;2023-05-16T05:03:59;12.77;;;8.87;;
46729;SDS011;32476;50.002;11.854;2023-05-16T05:06:24;13.03;;;8.97;;
46729;SDS011;32476;50.002;11.854;2023-05-16T05:08:52;11.50;;;8.90;;
46729;SDS011;32476;50.002;11.854;2023-05-16T05:11:18;13.43;;;9.73;;
46729;SDS011;32476;50.002;11.854;2023-05-16T05:13:45;12.03;;;9.33;;
46729;SDS011;32476;50.002;11.854;2023-05-16T05:16:12;14.23;;;9.13;;
46729;SDS011;32476;50.002;11.854;2023-05-16T05:18:38;15.57;;;9.63;;
46729;SDS011;32476;50.002;11.854;2023-05-16T05:21:04;16.00;;;9.93;;
46729;SDS011;32476;50.002;11.854;2023-05-16T05:23:31;12.07;;;8.90;;
46729;SDS011;32476;50.002;11.854;2023-05-16T05:25:59;12.87;;;9.33;;
46729;SDS011;32476;50.002;11.854;2023-05-16T05:28:26;13.60;;;9.67;;
46729;SDS011;32476;50.002;11.854;2023-05-16T05:30:53;15.80;;;10.07;;
46729;SDS011;32476;50.002;11.854;2023-05-16T05:33:22;15.60;;;10.17;;
46729;SDS011;32476;50.002;11.854;2023-05-16T05:35:53;15.10;;;10.53;;
46729;SDS011;32476;50.002;11.854;2023-05-16T05:38:19;13.50;;;9.70;;
46729;SDS011;32476;50.002;11.854;2023-05-16T05:40:45;13.67;;;10.43;;
46729;SDS011;32476;50.002;11.854;2023-05-16T05:43:13;16.03;;;10.57;;
46729;SDS011;32476;50.002;11.854;2023-05-16T05:45:39;15.43;;;10.80;;
46729;SDS011;32476;50.002;11.854;2023-05-16T05:48:05;19.93;;;12.33;;
46729;SDS011;32476;50.002;11.854;2023-05-16T05:50:33;16.83;;;11.97;;
46729;SDS011;32476;50.002;11.854;2023-05-16T05:52:59;17.20;;;11.27;;
46729;SDS011;32476;50.002;11.854;2023-05-16T05:55:25;14.00;;;11.80;;
46729;SDS011;32476;50.002;11.854;2023-05-16T05:57:52;15.07;;;12.40;;
46729;SDS011;32476;50.002;11.854;2023-05-16T06:00:18;16.90;;;11.30;;
46729;SDS011;32476;50.002;11.854;2023-05-16T06:02:44;15.83;;;12.07;;
46729;SDS011;32476;50.002;11.854;2023-05-16T06:05:12;18.10;;;11.73;;
46729;SDS011;32476;50.002;11.854;2023-05-16T06:07:38;16.07;;;12.37;;
46729;SDS011;32476;50.002;11.854;2023-05-16T06:10:04;18.20;;;11.50;;
46729;SDS011;32476;50.002;11.854;2023-05-16T06:12:34;17.67;;;11.73;;
46729;SDS011;32476;50.002;11.854;2023-05-16T06:15:00;13.23;;;10.63;;
46729;SDS011;32476;50.002;11.854;2023-05-16T06:17:25;14.50;;;10.17;;
46729;SDS011;32476;50.002;11.854;2023-05-16T06:19:53;16.73;;;10.77;;
46729;SDS011;32476;50.002;11.854;2023-05-16T06:22:18;13.13;;;9.77;;
46729;SDS011;32476;50.002;11.854;2023-05-16T06:24:44;11.53;;;10.23;;
46729;SDS011;32476;50.002;11.854;2023-05-16T06:27:11;14.43;;;8.97;;
46729;SDS011;32476;50.002;11.854;2023-05-16T06:29:37;15.40;;;9.53;;
46729;SDS011;32476;50.002;11.854;2023-05-16T06:32:03;13.97;;;8.63;;
46729;SDS011;32476;50.002;11.854;2023-05-16T06:34:31;9.57;;;7.70;;
46729;SDS011;32476;50.002;11.854;2023-05-16T06:36:56;12.50;;;6.90;;
46729;SDS011;32476;50.002;11.854;2023-05-16T06:39:23;11.80;;;7.70;;
46729;SDS011;32476;50.002;11.854;2023-05-16T06:41:50;10.67;;;6.63;;
46729;SDS011;32476;50.002;11.854;2023-05-16T06:44:16;7.67;;;6.37;;
46729;SDS011;32476;50.002;11.854;2023-05-16T06:46:41;10.03;;;7.17;;
46729;SDS011;32476;50.002;11.854;2023-05-16T06:49:09;8.77;;;6.70;;
46729;SDS011;32476;50.002;11.854;2023-05-16T06:51:35;8.37;;;6.43;;
46729;SDS011;32476;50.002;11.854;2023-05-16T06:54:01;8.43;;;6.23;;
46729;SDS011;32476;50.002;11.854;2023-05-16T06:56:28;9.07;;;6.40;;
46729;SDS011;32476;50.002;11.854;2023-05-16T06:58:55;9.20;;;6.43;;
46729;SDS011;32476;50.002;11.854;2023-05-16T07:01:21;10.57;;;6.90;;
46729;SDS011;32476;50.002;11.854;2023-05-16T07:03:48;10.80;;;7.67;;
46729;SDS011;32476;50.002;11.854;2023-05-16T07:06:14;11.63;;;7.53;;
46729;SDS011;32476;50.002;11.854;2023-05-16T07:08:40;11.93;;;7.97;;
46729;SDS011;32476;50.002;11.854;2023-05-16T07:11:07;10.97;;;8.07;;
46729;SDS011;32476;50.002;11.854;2023-05-16T07:13:35;9.00;;;7.30;;
46729;SDS011;32476;50.002;11.854;2023-05-16T07:16:01;11.53;;;8.50;;
46729;SDS011;32476;50.002;11.854;2023-05-16T07:18:29;10.40;;;8.00;;
46729;SDS011;32476;50.002;11.854;2023-05-16T07:20:54;13.43;;;8.33;;
46729;SDS011;32476;50.002;11.854;2023-05-16T07:23:20;12.10;;;8.57;;
46729;SDS011;32476;50.002;11.854;2023-05-16T07:25:47;13.33;;;8.70;;
46729;SDS011;32476;50.002;11.854;2023-05-16T07:28:13;12.57;;;8.67;;
46729;SDS011;32476;50.002;11.854;2023-05-16T07:30:39;11.37;;;9.13;;
46729;SDS011;32476;50.002;11.854;2023-05-16T07:33:06;12.83;;;8.80;;
46729;SDS011;32476;50.002;11.854;2023-05-16T07:35:32;10.60;;;7.93;;
46729;SDS011;32476;50.002;11.854;2023-05-16T07:37:58;11.53;;;8.20;;
46729;SDS011;32476;50.002;11.854;2023-05-16T07:40:25;15.40;;;8.87;;
46729;SDS011;32476;50.002;11.854;2023-05-16T07:42:53;11.63;;;8.30;;
46729;SDS011;32476;50.002;11.854;2023-05-16T07:45:19;17.23;;;9.20;;
46729;SDS011;32476;50.002;11.854;2023-05-16T07:47:47;13.57;;;9.30;;
46729;SDS011;32476;50.002;11.854;2023-05-16T07:50:13;11.43;;;9.10;;
46729;SDS011;32476;50.002;11.854;2023-05-16T07:52:39;11.50;;;10.30;;
46729;SDS011;32476;50.002;11.854;2023-05-16T07:55:06;11.47;;;9.13;;
46729;SDS011;32476;50.002;11.854;2023-05-16T07:57:32;12.33;;;8.83;;
46729;SDS011;32476;50.002;11.854;2023-05-16T07:59:58;10.47;;;9.00;;
46729;SDS011;32476;50.002;11.854;2023-05-16T08:02:26;11.20;;;9.30;;
46729;SDS011;32476;50.002;11.854;2023-05-16T08:04:56;13.90;;;10.57;;
46729;SDS011;32476;50.002;11.854;2023-05-16T08:07:22;12.40;;;9.07;;
46729;SDS011;32476;50.002;11.854;2023-05-16T08:09:49;11.90;;;10.23;;
46729;SDS011;32476;50.002;11.854;2023-05-16T08:12:15;13.53;;;10.27;;
46729;SDS011;32476;50.002;11.854;2023-05-16T08:14:41;14.13;;;10.47;;
46729;SDS011;32476;50.002;11.854;2023-05-16T08:17:08;12.43;;;8.73;;
46729;SDS011;32476;50.002;11.854;2023-05-16T08:19:34;14.37;;;9.70;;
46729;SDS011;32476;50.002;11.854;2023-05-16T08:22:00;11.37;;;9.07;;
46729;SDS011;32476;50.002;11.854;2023-05-16T08:24:27;14.00;;;9.30;;
46729;SDS011;32476;50.002;11.854;2023-05-16T08:26:53;9.37;;;8.17;;
46729;SDS011;32476;50.002;11.854;2023-05-16T08:29:19;10.30;;;7.93;;
46729;SDS011;32476;50.002;11.854;2023-05-16T08:31:46;8.97;;;7.90;;
46729;SDS011;32476;50.002;11.854;2023-05-16T08:34:12;15.60;;;8.53;;
46729;SDS011;32476;50.002;11.854;2023-05-16T08:36:38;13.10;;;8.37;;
46729;SDS011;32476;50.002;11.854;2023-05-16T08:39:05;12.50;;;8.80;;
46729;SDS011;32476;50.002;11.854;2023-05-16T08:41:31;10.87;;;8.80;;
46729;SDS011;32476;50.002;11.854;2023-05-16T08:43:57;9.93;;;8.70;;
46729;SDS011;32476;50.002;11.854;2023-05-16T08:46:25;12.23;;;8.90;;
46729;SDS011;32476;50.002;11.854;2023-05-16T08:48:53;13.60;;;9.07;;
46729;SDS011;32476;50.002;11.854;2023-05-16T08:51:24;11.27;;;8.93;;
46729;SDS011;32476;50.002;11.854;2023-05-16T08:53:56;13.60;;;10.13;;
46729;SDS011;32476;50.002;11.854;2023-05-16T08:56:28;12.87;;;9.40;;
46729;SDS011;32476;50.002;11.854;2023-05-16T08:58:57;13.17;;;9.10;;
46729;SDS011;32476;50.002;11.854;2023-05-16T09:01:24;11.03;;;8.87;;
46729;SDS011;32476;50.002;11.854;2023-05-16T09:03:52;11.37;;;8.97;;
46729;SDS011;32476;50.002;11.854;2023-05-16T09:06:19;13.80;;;9.33;;
46729;SDS011;32476;50.002;11.854;2023-05-16T09:08:45;10.93;;;9.47;;
46729;SDS011;32476;50.002;11.854;2023-05-16T09:11:12;12.10;;;9.53;;
46729;SDS011;32476;50.002;11.854;2023-05-16T09:13:38;12.73;;;9.93;;
46729;SDS011;32476;50.002;11.854;2023-05-16T09:16:10;13.97;;;10.67;;
46729;SDS011;32476;50.002;11.854;2023-05-16T09:18:39;11.13;;;9.23;;
46729;SDS011;32476;50.002;11.854;2023-05-16T09:21:08;13.53;;;9.53;;
46729;SDS011;32476;50.002;11.854;2023-05-16T09:23:35;13.60;;;9.17;;
46729;SDS011;32476;50.002;11.854;2023-05-16T09:26:05;11.07;;;8.93;;
46729;SDS011;32476;50.002;11.854;2023-05-16T09:28:32;10.27;;;8.27;;
46729;SDS011;32476;50.002;11.854;2023-05-16T09:30:58;9.30;;;7.77;;
46729;SDS011;32476;50.002;11.854;2023-05-16T09:33:26;10.37;;;8.27;;
46729;SDS011;32476;50.002;11.854;2023-05-16T09:35:57;13.83;;;8.63;;
46729;SDS011;32476;50.002;11.854;2023-05-16T09:38:26;11.83;;;8.07;;
46729;SDS011;32476;50.002;11.854;2023-05-16T09:40:53;12.73;;;9.00;;
46729;SDS011;32476;50.002;11.854;2023-05-16T09:43:24;11.93;;;7.53;;
46729;SDS011;32476;50.002;11.854;2023-05-16T09:45:52;9.90;;;8.40;;
46729;SDS011;32476;50.002;11.854;2023-05-16T09:48:20;9.87;;;7.63;;
46729;SDS011;32476;50.002;11.854;2023-05-16T09:50:51;10.70;;;8.13;;
46729;SDS011;32476;50.002;11.854;2023-05-16T09:53:26;9.87;;;8.17;;
46729;SDS011;32476;50.002;11.854;2023-05-16T09:55:59;11.67;;;9.33;;
46729;SDS011;32476;50.002;11.854;2023-05-16T09:58:32;12.27;;;9.23;;
46729;SDS011;32476;50.002;11.854;2023-05-16T10:00:59;11.40;;;9.03;;
46729;SDS011;32476;50.002;11.854;2023-05-16T10:03:26;11.97;;;9.40;;
46729;SDS011;32476;50.002;11.854;2023-05-16T10:05:54;15.83;;;9.13;;
46729;SDS011;32476;50.002;11.854;2023-05-16T10:08:23;12.23;;;9.00;;
46729;SDS011;32476;50.002;11.854;2023-05-16T10:10:51;13.40;;;9.53;;
46729;SDS011;32476;50.002;11.854;2023-05-16T10:13:23;12.87;;;10.13;;
46729;SDS011;32476;50.002;11.854;2023-05-16T10:15:54;13.93;;;11.33;;
46729;SDS011;32476;50.002;11.854;2023-05-16T10:18:30;14.30;;;10.93;;
46729;SDS011;32476;50.002;11.854;2023-05-16T10:21:09;13.60;;;10.83;;
46729;SDS011;32476;50.002;11.854;2023-05-16T10:23:41;16.07;;;10.63;;
46729;SDS011;32476;50.002;11.854;2023-05-16T10:26:08;16.10;;;11.17;;
46729;SDS011;32476;50.002;11.854;2023-05-16T10:28:35;14.37;;;10.37;;
46729;SDS011;32476;50.002;11.854;2023-05-16T10:31:03;12.10;;;9.70;;
46729;SDS011;32476;50.002;11.854;2023-05-16T10:33:30;13.30;;;9.80;;
46729;SDS011;32476;50.002;11.854;2023-05-16T10:35:56;13.33;;;9.40;;
46729;SDS011;32476;50.002;11.854;2023-05-16T10:38:24;13.33;;;10.17;;
46729;SDS011;32476;50.002;11.854;2023-05-16T10:40:51;11.97;;;9.70;;
46729;SDS011;32476;50.002;11.854;2023-05-16T10:43:27;13.07;;;9.90;;
46729;SDS011;32476;50.002;11.854;2023-05-16T10:45:57;12.13;;;9.53;;
46729;SDS011;32476;50.002;11.854;2023-05-16T10:48:41;10.37;;;9.00;;
46729;SDS011;32476;50.002;11.854;2023-05-16T10:53:47;11.50;;;8.80;;
46729;SDS011;32476;50.002;11.854;2023-05-16T10:56:24;10.93;;;8.50;;
46729;SDS011;32476;50.002;11.854;2023-05-16T10:58:52;11.90;;;8.90;;
46729;SDS011;32476;50.002;11.854;2023-05-16T11:11:45;13.30;;;9.40;;
46729;SDS011;32476;50.002;11.854;2023-05-16T11:14:32;11.00;;;8.70;;
46729;SDS011;32476;50.002;11.854;2023-05-16T11:17:13;11.00;;;8.60;;
46729;SDS011;32476;50.002;11.854;2023-05-16T11:19:41;11.47;;;7.93;;
46729;SDS011;32476;50.002;11.854;2023-05-16T11:22:31;11.87;;;8.30;;
46729;SDS011;32476;50.002;11.854;2023-05-16T11:25:04;14.40;;;8.77;;
46729;SDS011;32476;50.002;11.854;2023-05-16T11:27:33;12.50;;;8.27;;
46729;SDS011;32476;50.002;11.854;2023-05-16T11:30:14;12.13;;;9.07;;
46729;SDS011;32476;50.002;11.854;2023-05-16T11:32:44;13.80;;;7.83;;
46729;SDS011;32476;50.002;11.854;2023-05-16T11:35:11;12.13;;;8.73;;
46729;SDS011;32476;50.002;11.854;2023-05-16T11:37:38;13.57;;;8.87;;
46729;SDS011;32476;50.002;11.854;2023-05-16T11:40:07;14.67;;;8.67;;
46729;SDS011;32476;50.002;11.854;2023-05-16T11:42:35;10.33;;;7.90;;
46729;SDS011;32476;50.002;11.854;2023-05-16T11:45:07;10.70;;;8.30;;
46729;SDS011;32476;50.002;11.854;2023-05-16T11:47:38;11.43;;;8.37;;
46729;SDS011;32476;50.002;11.854;2023-05-16T11:50:11;11.07;;;8.23;;
46729;SDS011;32476;50.002;11.854;2023-05-16T11:52:42;10.93;;;7.77;;
46729;SDS011;32476;50.002;11.854;2023-05-16T11:55:08;11.13;;;7.90;;
46729;SDS011;32476;50.002;11.854;2023-05-16T11:57:36;9.37;;;7.50;;
46729;SDS011;32476;50.002;11.854;2023-05-16T12:00:05;10.90;;;8.30;;
46729;SDS011;32476;50.002;11.854;2023-05-16T12:02:40;11.70;;;8.23;;
46729;SDS011;32476;50.002;11.854;2023-05-16T12:05:08;11.63;;;8.90;;
46729;SDS011;32476;50.002;11.854;2023-05-16T12:07:35;11.30;;;8.50;;
46729;SDS011;32476;50.002;11.854;2023-05-16T12:10:08;12.97;;;8.00;;
46729;SDS011;32476;50.002;11.854;2023-05-16T12:12:37;9.93;;;7.07;;
46729;SDS011;32476;50.002;11.854;2023-05-16T12:15:05;11.73;;;6.83;;
46729;SDS011;32476;50.002;11.854;2023-05-16T12:17:32;8.67;;;6.47;;
46729;SDS011;32476;50.002;11.854;2023-05-16T12:20:05;9.10;;;7.17;;
46729;SDS011;32476;50.002;11.854;2023-05-16T12:22:41;14.67;;;7.67;;
46729;SDS011;32476;50.002;11.854;2023-05-16T12:28:01;10.67;;;7.70;;
46729;SDS011;32476;50.002;11.854;2023-05-16T12:30:31;9.40;;;7.50;;
46729;SDS011;32476;50.002;11.854;2023-05-16T12:33:01;9.63;;;7.97;;
46729;SDS011;32476;50.002;11.854;2023-05-16T12:35:31;9.90;;;7.50;;
46729;SDS011;32476;50.002;11.854;2023-05-16T12:37:58;10.90;;;7.70;;
46729;SDS011;32476;50.002;11.854;2023-05-16T12:40:27;11.03;;;7.30;;
46729;SDS011;32476;50.002;11.854;2023-05-16T12:42:55;13.33;;;6.53;;
46729;SDS011;32476;50.002;11.854;2023-05-16T12:45:22;10.00;;;6.80;;
46729;SDS011;32476;50.002;11.854;2023-05-16T12:47:48;9.90;;;7.60;;
46729;SDS011;32476;50.002;11.854;2023-05-16T12:50:16;11.37;;;7.27;;
46729;SDS011;32476;50.002;11.854;2023-05-16T12:52:47;18.67;;;10.80;;
46729;SDS011;32476;50.002;11.854;2023-05-16T12:55:16;12.00;;;7.37;;
46729;SDS011;32476;50.002;11.854;2023-05-16T12:57:43;9.03;;;6.90;;
46729;SDS011;32476;50.002;11.854;2023-05-16T13:00:11;8.30;;;7.00;;
46729;SDS011;32476;50.002;11.854;2023-05-16T13:02:40;7.67;;;5.90;;
46729;SDS011;32476;50.002;11.854;2023-05-16T13:05:06;12.80;;;6.40;;
46729;SDS011;32476;50.002;11.854;2023-05-16T13:07:33;11.30;;;7.30;;
46729;SDS011;32476;50.002;11.854;2023-05-16T13:10:00;13.23;;;6.57;;
46729;SDS011;32476;50.002;11.854;2023-05-16T13:12:26;10.13;;;6.67;;
46729;SDS011;32476;50.002;11.854;2023-05-16T13:14:53;9.30;;;6.50;;
46729;SDS011;32476;50.002;11.854;2023-05-16T13:17:20;12.70;;;6.10;;
46729;SDS011;32476;50.002;11.854;2023-05-16T13:19:47;9.47;;;6.37;;
46729;SDS011;32476;50.002;11.854;2023-05-16T13:22:14;7.73;;;5.80;;
46729;SDS011;32476;50.002;11.854;2023-05-16T13:24:41;9.30;;;6.20;;
46729;SDS011;32476;50.002;11.854;2023-05-16T13:27:07;8.07;;;6.07;;
46729;SDS011;32476;50.002;11.854;2023-05-16T13:29:33;10.20;;;6.53;;
46729;SDS011;32476;50.002;11.854;2023-05-16T13:32:00;10.17;;;5.47;;
46729;SDS011;32476;50.002;11.854;2023-05-16T13:34:26;7.03;;;5.10;;
46729;SDS011;32476;50.002;11.854;2023-05-16T13:36:52;7.67;;;5.53;;
46729;SDS011;32476;50.002;11.854;2023-05-16T13:39:19;9.87;;;5.53;;
46729;SDS011;32476;50.002;11.854;2023-05-16T13:41:46;8.87;;;5.53;;
46729;SDS011;32476;50.002;11.854;2023-05-16T13:44:12;7.97;;;5.73;;
46729;SDS011;32476;50.002;11.854;2023-05-16T13:46:39;8.87;;;5.70;;
46729;SDS011;32476;50.002;11.854;2023-05-16T13:49:05;9.13;;;5.63;;
46729;SDS011;32476;50.002;11.854;2023-05-16T13:51:31;8.80;;;5.40;;
46729;SDS011;32476;50.002;11.854;2023-05-16T13:53:58;8.43;;;5.67;;
46729;SDS011;32476;50.002;11.854;2023-05-16T13:56:26;7.97;;;5.73;;
46729;SDS011;32476;50.002;11.854;2023-05-16T13:58:52;7.17;;;5.90;;
46729;SDS011;32476;50.002;11.854;2023-05-16T14:01:19;7.30;;;5.67;;
46729;SDS011;32476;50.002;11.854;2023-05-16T14:03:45;8.87;;;6.50;;
46729;SDS011;32476;50.002;11.854;2023-05-16T14:06:11;8.70;;;6.23;;
46729;SDS011;32476;50.002;11.854;2023-05-16T14:08:39;9.63;;;7.00;;
46729;SDS011;32476;50.002;11.854;2023-05-16T14:11:05;9.10;;;6.87;;
46729;SDS011;32476;50.002;11.854;2023-05-16T14:13:30;11.60;;;6.90;;
46729;SDS011;32476;50.002;11.854;2023-05-16T14:15:57;9.67;;;6.90;;
46729;SDS011;32476;50.002;11.854;2023-05-16T14:18:23;16.37;;;7.77;;
46729;SDS011;32476;50.002;11.854;2023-05-16T14:20:49;10.67;;;8.00;;
46729;SDS011;32476;50.002;11.854;2023-05-16T14:23:17;11.50;;;8.13;;
46729;SDS011;32476;50.002;11.854;2023-05-16T14:25:42;12.27;;;7.87;;
46729;SDS011;32476;50.002;11.854;2023-05-16T14:28:08;10.37;;;7.43;;
46729;SDS011;32476;50.002;11.854;2023-05-16T14:30:36;10.53;;;8.27;;
46729;SDS011;32476;50.002;11.854;2023-05-16T14:33:01;12.90;;;6.87;;
46729;SDS011;32476;50.002;11.854;2023-05-16T14:35:27;11.70;;;7.63;;
46729;SDS011;32476;50.002;11.854;2023-05-16T14:37:55;9.90;;;6.90;;
46729;SDS011;32476;50.002;11.854;2023-05-16T14:40:21;8.23;;;6.13;;
46729;SDS011;32476;50.002;11.854;2023-05-16T14:42:47;8.10;;;5.93;;
46729;SDS011;32476;50.002;11.854;2023-05-16T14:45:14;8.80;;;6.73;;
46729;SDS011;32476;50.002;11.854;2023-05-16T14:47:41;9.80;;;6.67;;